Emu Arrow — C6OR4 — position and weather

sailwx.info

Track history (hours):
 
Tides and Currents Weather Stations Pressure Air Temp Water Temp Dewpoint Dewpoint Depression Visibility Wind Speed Wind Dir Waves Ship Positions

Emu Arrow

Last reported at 2014-Sep-16 22:32 UTC. Time now 2014-Sep-16 23:29 UTC.
Position S 27°23' E 153°10'.

Length 200 m; draft 9.3 m.

Type: Cargo ship. MMSI: 309805000.

Date/timePositionNaut miles runAvg speedWind from/ knotsBaromVisibWave heightAir tempDewpointWater temp
2014-Sep-16 22:32S 27°23' E 153°10'0 0.0
2014-Sep-16 21:32S 27°23' E 153°10'0 0.0
2014-Sep-16 20:32S 27°23' E 153°10'0 0.0
2014-Sep-16 19:32S 27°23' E 153°10'0 0.0
2014-Sep-16 18:32S 27°23' E 153°10'0 0.0
2014-Sep-16 17:32S 27°23' E 153°10'0 0.0
2014-Sep-16 16:32S 27°23' E 153°10'0 0.0
2014-Sep-16 15:32S 27°23' E 153°10'0 0.0
2014-Sep-16 14:32S 27°23' E 153°10'0 0.0
2014-Sep-16 13:32S 27°23' E 153°10'0 0.0
2014-Sep-16 12:32S 27°23' E 153°10'0 0.0
2014-Sep-16 11:32S 27°23' E 153°10'0 0.0
2014-Sep-16 10:32S 27°23' E 153°10'0 0.0
2014-Sep-16 09:32S 27°23' E 153°10'0 0.1
2014-Sep-16 08:32S 27°23' E 153°10'0 0.1
2014-Sep-16 07:32S 27°23' E 153°10'0 0.0
2014-Sep-16 06:32S 27°23' E 153°10'0 0.0
2014-Sep-16 05:32S 27°23' E 153°10'0 0.0
2014-Sep-16 04:32S 27°23' E 153°10'0 0.0
2014-Sep-16 03:32S 27°23' E 153°10'0 0.0
2014-Sep-16 02:32S 27°23' E 153°10'0 0.0
2014-Sep-16 01:32S 27°23' E 153°10'0 0.0
2014-Sep-16 00:32S 27°23' E 153°10'0 0.0
2014-Sep-15 23:32S 27°23' E 153°10'0 0.1
2014-Sep-15 22:32S 27°23' E 153°10'0 0.1
2014-Sep-15 21:32S 27°23' E 153°10'0 0.0
2014-Sep-15 20:32S 27°23' E 153°10'0 0.0
2014-Sep-15 19:32S 27°23' E 153°10'0 0.0
2014-Sep-15 18:32S 27°23' E 153°10'0 0.0
2014-Sep-15 17:32S 27°23' E 153°10'0 0.0
2014-Sep-15 16:32S 27°23' E 153°10'0 0.0
2014-Sep-15 15:32S 27°23' E 153°10'0 0.0
2014-Sep-15 14:32S 27°23' E 153°10'0 0.0
2014-Sep-15 13:32S 27°23' E 153°10'0 0.0
2014-Sep-15 12:32S 27°23' E 153°10'0 0.0
2014-Sep-15 11:32S 27°23' E 153°10'0 0.0
2014-Sep-15 10:32S 27°23' E 153°10'0 0.0
2014-Sep-15 09:32S 27°23' E 153°10'0 0.0
2014-Sep-15 08:32S 27°23' E 153°10'0 0.0
2014-Sep-15 07:32S 27°23' E 153°10'0 0.0
2014-Sep-15 06:32S 27°23' E 153°10'0 0.1
2014-Sep-15 05:32S 27°23' E 153°10'0 0.1
2014-Sep-15 04:32S 27°23' E 153°10'0 0.0
2014-Sep-15 03:32S 27°23' E 153°10'0 0.0
2014-Sep-15 02:32S 27°23' E 153°10'0 0.0
2014-Sep-15 01:32S 27°23' E 153°10'0 0.0
2014-Sep-15 00:32S 27°23' E 153°10'0 0.0
2014-Sep-14 23:32S 27°23' E 153°10'0 0.0
2014-Sep-14 22:32S 27°23' E 153°10'0 0.0
2014-Sep-14 21:32S 27°23' E 153°10'0 0.0
2014-Sep-14 20:32S 27°23' E 153°10'0 0.0
2014-Sep-14 19:32S 27°23' E 153°10'0 0.0
2014-Sep-14 18:32S 27°23' E 153°10'0 0.0
2014-Sep-14 17:32S 27°23' E 153°10'0 0.0
2014-Sep-14 16:32S 27°23' E 153°10'0 0.0
2014-Sep-14 15:32S 27°23' E 153°10'0 0.0
2014-Sep-14 14:32S 27°23' E 153°10'0 0.0
2014-Sep-14 13:32S 27°23' E 153°10'0 0.0
2014-Sep-14 12:32S 27°23' E 153°10'0 0.0
2014-Sep-14 11:32S 27°23' E 153°10'5 4.8
2014-Sep-14 10:34S 27°19' E 153°13'1212.2
2014-Sep-14 09:34S 27°09' E 153°21'1312.7
2014-Sep-14 08:33S 26°58' E 153°14'1110.9
2014-Sep-14 07:33S 26°47' E 153°11'7 7.2
2014-Sep-14 06:33S 26°42' E 153°16'4 3.6
2014-Sep-14 05:33S 26°41' E 153°20'4 4.2
2014-Sep-14 04:33S 26°37' E 153°21'5 5.4
2014-Sep-14 03:33S 26°31' E 153°23'6 5.9
2014-Sep-14 02:32S 26°26' E 153°24'5 5.6
2014-Sep-14 01:33S 26°20' E 153°26'  
Track history (hours):
 
Tides and Currents Weather Stations Pressure Air Temp Water Temp Dewpoint Dewpoint Depression Visibility Wind Speed Wind Dir Waves Ship Positions

Emu Arrow

Last reported at 2014-Sep-16 22:32 UTC. Time now 2014-Sep-16 23:29 UTC.
Position S 27°23' E 153°10'.

Length 200 m; draft 9.3 m.

Type: Cargo ship. MMSI: 309805000.

Date/timePositionNaut miles runAvg speedWind from/ knotsBaromVisibWave heightAir tempDewpointWater temp
2014-Sep-16 22:32S 27°23' E 153°10'0 0.0
2014-Sep-16 21:32S 27°23' E 153°10'0 0.0
2014-Sep-16 20:32S 27°23' E 153°10'0 0.0
2014-Sep-16 19:32S 27°23' E 153°10'0 0.0
2014-Sep-16 18:32S 27°23' E 153°10'0 0.0
2014-Sep-16 17:32S 27°23' E 153°10'0 0.0
2014-Sep-16 16:32S 27°23' E 153°10'0 0.0
2014-Sep-16 15:32S 27°23' E 153°10'0 0.0
2014-Sep-16 14:32S 27°23' E 153°10'0 0.0
2014-Sep-16 13:32S 27°23' E 153°10'0 0.0
2014-Sep-16 12:32S 27°23' E 153°10'0 0.0
2014-Sep-16 11:32S 27°23' E 153°10'0 0.0
2014-Sep-16 10:32S 27°23' E 153°10'0 0.0
2014-Sep-16 09:32S 27°23' E 153°10'0 0.1
2014-Sep-16 08:32S 27°23' E 153°10'0 0.1
2014-Sep-16 07:32S 27°23' E 153°10'0 0.0
2014-Sep-16 06:32S 27°23' E 153°10'0 0.0
2014-Sep-16 05:32S 27°23' E 153°10'0 0.0
2014-Sep-16 04:32S 27°23' E 153°10'0 0.0
2014-Sep-16 03:32S 27°23' E 153°10'0 0.0
2014-Sep-16 02:32S 27°23' E 153°10'0 0.0
2014-Sep-16 01:32S 27°23' E 153°10'0 0.0
2014-Sep-16 00:32S 27°23' E 153°10'0 0.0
2014-Sep-15 23:32S 27°23' E 153°10'0 0.1
2014-Sep-15 22:32S 27°23' E 153°10'0 0.1
2014-Sep-15 21:32S 27°23' E 153°10'0 0.0
2014-Sep-15 20:32S 27°23' E 153°10'0 0.0
2014-Sep-15 19:32S 27°23' E 153°10'0 0.0
2014-Sep-15 18:32S 27°23' E 153°10'0 0.0
2014-Sep-15 17:32S 27°23' E 153°10'0 0.0
2014-Sep-15 16:32S 27°23' E 153°10'0 0.0
2014-Sep-15 15:32S 27°23' E 153°10'0 0.0
2014-Sep-15 14:32S 27°23' E 153°10'0 0.0
2014-Sep-15 13:32S 27°23' E 153°10'0 0.0
2014-Sep-15 12:32S 27°23' E 153°10'0 0.0
2014-Sep-15 11:32S 27°23' E 153°10'0 0.0
2014-Sep-15 10:32S 27°23' E 153°10'0 0.0
2014-Sep-15 09:32S 27°23' E 153°10'0 0.0
2014-Sep-15 08:32S 27°23' E 153°10'0 0.0
2014-Sep-15 07:32S 27°23' E 153°10'0 0.0
2014-Sep-15 06:32S 27°23' E 153°10'0 0.1
2014-Sep-15 05:32S 27°23' E 153°10'0 0.1
2014-Sep-15 04:32S 27°23' E 153°10'0 0.0
2014-Sep-15 03:32S 27°23' E 153°10'0 0.0
2014-Sep-15 02:32S 27°23' E 153°10'0 0.0
2014-Sep-15 01:32S 27°23' E 153°10'0 0.0
2014-Sep-15 00:32S 27°23' E 153°10'0 0.0
2014-Sep-14 23:32S 27°23' E 153°10'0 0.0
2014-Sep-14 22:32S 27°23' E 153°10'0 0.0
2014-Sep-14 21:32S 27°23' E 153°10'0 0.0
2014-Sep-14 20:32S 27°23' E 153°10'0 0.0
2014-Sep-14 19:32S 27°23' E 153°10'0 0.0
2014-Sep-14 18:32S 27°23' E 153°10'0 0.0
2014-Sep-14 17:32S 27°23' E 153°10'0 0.0
2014-Sep-14 16:32S 27°23' E 153°10'0 0.0
2014-Sep-14 15:32S 27°23' E 153°10'0 0.0
2014-Sep-14 14:32S 27°23' E 153°10'0 0.0
2014-Sep-14 13:32S 27°23' E 153°10'0 0.0
2014-Sep-14 12:32S 27°23' E 153°10'0 0.0
2014-Sep-14 11:32S 27°23' E 153°10'5 4.8
2014-Sep-14 10:34S 27°19' E 153°13'1212.2
2014-Sep-14 09:34S 27°09' E 153°21'1312.7
2014-Sep-14 08:33S 26°58' E 153°14'1110.9
2014-Sep-14 07:33S 26°47' E 153°11'7 7.2
2014-Sep-14 06:33S 26°42' E 153°16'4 3.6
2014-Sep-14 05:33S 26°41' E 153°20'4 4.2
2014-Sep-14 04:33S 26°37' E 153°21'5 5.4
2014-Sep-14 03:33S 26°31' E 153°23'6 5.9
2014-Sep-14 02:32S 26°26' E 153°24'5 5.6
2014-Sep-14 01:33S 26°20' E 153°26'  

Dump ship's entire track history